メインページ
METAR-TAF:

METAR-TAF

空港 :

パゴパゴ国際空港

パゴパゴ, 合衆国領有小離島

緯度: 14-20S, 経度: 170-43W, 海抜: 3m

現時点の気象観測

当レポートは25分前の04:50(UTC)に作成
変向風 6kt
気温 28°C
湿度 74%
気圧 1013 hPa
視程: 19.3km
高度2000ftの雲はほとんどない

METAR: NSTU 200450Z VRB06KT 12SM FEW020 28/23 A2990 RMK SLP127 T02810230

時間: 18:15 (05:15 UTC)

予報

当レポートは5時間55分前の23:20(UTC)に作成
予報は20日の 00時(UTC)から 20日の 24時(UTC)まで有効
東/南東の風 10kt
視程: 10km
高度1500ftの雲は散在している
高度4000ftの雲は散在している
高度10000ftの雲は散在している

TAF: NSTU 192320Z 2000/2024 11010KT P6SM SCT015 SCT040 SCT100

4,000以上の空港の気象観測と天気予報(METAR報とTAF報)

利用可能な観測所は地図上に黄色い丸と赤い丸で示す。

丸の上にカーソルを重ねると観測所名を参照できる。

次にクリックすると気象観測と天気予報を参照できる。

マップの切り替え:黒色「×」印の緑ボタンをクリックして拡大、「-」印の緑ボタンをクリックして縮小、緑色の三角印をクリックして隣りの地図に切り替え


METAR-TAF: